• Join FlightAware (Why Join?)
  • Login
  • US Flag 
Trick or treat! (Boo!!) 
09:06AM EDT


 

Airport Tracker/Info


-or-


 

Live Flight TrackerFlight Track Log ✈ TCF3494 ✈ 29-Apr-2013 ✈ KORD - KLGA

Flight Track Log - Related Links

Times and Time Zones

All times are in EDT time to prevent confusion due to time zone crossing. See the TCF3494 flight status page for this flight to view local times or setup timezone preferences in your user account.

Time Position Orientation Groundspeed Altitude Reporting Facility
EDT Latitude Longitude Course Direction KTS MPH feet Rate Location/Type
04:17PM 41.9333 -87.8667 77° East 211 243 2,900  Level Chicago TRACON
04:18PM 41.9500 -87.7667 77° East 274 315 5,600 2,940 Climbing Chicago TRACON
04:19PM 41.9833 -87.6667 66° East 317 365 8,800 2,760 Climbing Chicago TRACON
04:21PM 41.9714 -87.4672 95° East 330 380 13,700 2,460 Climbing Chicago Center
04:22PM 41.9611 -87.3111 95° East 344 396 16,100 2,400 Climbing Chicago Center
04:23PM 41.9508 -87.1656 95° East 380 437 18,700 2,400 Climbing Chicago Center
04:24PM 41.9431 -87.0192 94° East 390 449 21,100 2,040 Climbing Chicago Center
04:25PM 41.9467 -86.8669 88° East 403 464 23,000 1,800 Climbing Chicago Center
04:26PM 41.9481 -86.7086 89° East 419 482 24,900 1,800 Climbing Chicago Center
04:27PM 41.9503 -86.5392 89° East 431 496 26,800 1,560 Climbing Chicago Center
04:28PM 41.9519 -86.3750 89° East 437 503 28,200 1,440 Climbing Chicago Center
04:29PM 41.9511 -86.1717 90° East 451 519 29,800 1,320 Climbing Chicago Center
04:30PM 41.9358 -86.0022 97° East 456 525 31,000 1,080 Climbing Chicago Center
04:31PM 41.9197 -85.8319 97° East 458 527 32,100 1,140 Climbing Chicago Center
04:32PM 41.9031 -85.6611 97° East 459 528 33,400 1,080 Climbing Chicago Center
04:33PM 41.8872 -85.4897 97° East 458 527 34,400 720 Climbing Chicago Center
04:34PM 41.8708 -85.3167 97° East 460 529 35,000 240 Climbing Chicago Center
04:35PM 41.8536 -85.1439 98° East 461 531 35,000  Level Chicago Center
04:36PM 41.8414 -85.0042 97° East 449 517 35,000  Level Cleveland Center
04:37PM 41.8228 -84.8331 98° East 454 522 35,000  Level Cleveland Center
04:38PM 41.8039 -84.6617 98° East 459 528 35,000  Level Cleveland Center
04:39PM 41.7847 -84.4933 99° East 459 528 35,000  Level Cleveland Center
04:40PM 41.7778 -84.3258 93° East 459 528 35,000  Level Cleveland Center
04:41PM 41.7731 -84.1500 92° East 439 505 35,000  Level Cleveland Center
04:42PM 41.7739 -83.9914 90° East 433 498 35,000  Level Cleveland Center
04:43PM 41.7722 -83.8325 91° East 426 490 35,000  Level Cleveland Center
04:44PM 41.7681 -83.6736 92° East 421 484 35,000  Level Cleveland Center
04:45PM 41.7639 -83.5175 92° East 421 484 35,000  Level Cleveland Center
04:46PM 41.7492 -83.3581 97° East 426 490 35,000  Level Cleveland Center
04:47PM 41.7322 -83.1875 98° East 438 504 35,000  Level Cleveland Center
04:48PM 41.7172 -83.0200 97° East 450 518 35,000  Level Cleveland Center
04:49PM 41.6997 -82.8525 98° East 450 518 35,000  Level Cleveland Center
04:50PM 41.6822 -82.6850 98° East 450 518 35,000  Level Cleveland Center
04:51PM 41.6664 -82.5178 97° East 450 518 35,000  Level Cleveland Center
04:52PM 41.6519 -82.3867 98° East 450 518 35,000  Level Cleveland Center
04:53PM 41.6336 -82.2056 98° East 445 512 35,000  Level Cleveland Center
04:54PM 41.6150 -82.0411 99° East 445 512 35,000  Level Cleveland Center
04:55PM 41.5964 -81.8603 98° East 451 519 35,000  Level Cleveland Center
04:56PM 41.5772 -81.6961 99° East 451 519 35,000  Level Cleveland Center
04:57PM 41.5600 -81.5322 98° East 446 513 35,000  Level Cleveland Center
04:58PM 41.5403 -81.3683 99° East 451 519 35,000  Level Cleveland Center
04:59PM 41.5206 -81.2044 99° East 451 519 35,000  Level Cleveland Center
05:00PM 41.5067 -81.0544 97° East 451 519 35,000  Level Cleveland Center
05:01PM 41.4906 -80.8908 97° East 445 512 35,000  Level Cleveland Center
05:02PM 41.4783 -80.7244 96° East 445 512 35,000  Level Cleveland Center
05:03PM 41.4639 -80.5611 97° East 445 512 35,000  Level Cleveland Center
05:04PM 41.4469 -80.3975 98° East 445 512 35,000  Level Cleveland Center
05:05PM 41.4319 -80.2314 97° East 445 512 35,000  Level Cleveland Center
05:06PM 41.4169 -80.0625 97° East 445 512 35,000  Level Cleveland Center
05:07PM 41.3992 -79.8994 98° East 445 512 35,000  Level Cleveland Center
05:08PM 41.3836 -79.7364 97° East 445 512 35,000  Level Cleveland Center
05:09PM 41.3678 -79.5706 97° East 445 512 35,000  Level Cleveland Center
05:10PM 41.3514 -79.4047 97° East 445 512 35,000  Level Cleveland Center
05:11PM 41.3331 -79.2419 98° East 445 512 35,000  Level Cleveland Center
05:12PM 41.3164 -79.0819 98° East 445 512 35,000  Level Cleveland Center
05:13PM 41.3017 -78.9164 97° East 445 512 35,000  Level Cleveland Center
05:14PM 41.2825 -78.7567 99° East 445 512 35,000  Level Cleveland Center
05:16PM 41.2431 -78.3983 98° East 449 517 35,000 -360 Level New York Center
05:17PM 41.2261 -78.2392 98° East 449 517 34,000 -1,020 Descending New York Center
05:18PM 41.2069 -78.0769 99° East 449 517 33,000 -540 Descending New York Center
05:19PM 41.1856 -77.9147 100° East 449 517 33,000  Level New York Center
05:20PM 41.1661 -77.7528 99° East 449 517 33,000  Level New York Center
05:21PM 41.1464 -77.5881 99° East 449 517 33,000  Level New York Center
05:22PM 41.1244 -77.4233 100° East 449 517 33,000 -660 Level New York Center
05:23PM 41.1033 -77.2781 101° East 449 517 31,700 -1,740 Descending New York Center
05:24PM 41.0831 -77.1164 99° East 449 517 29,600 -2,160 Descending New York Center
05:25PM 41.0603 -76.9544 101° East 449 517 27,400 -2,160 Descending New York Center
05:26PM 41.0394 -76.7958 100° East 449 517 25,300 -2,040 Descending New York Center
05:27PM 41.0156 -76.6453 102° East 431 496 23,400 -1,980 Descending New York Center
05:28PM 40.9831 -76.5047 107° East 414 476 21,500 -1,920 Descending New York Center
05:29PM 40.9500 -76.3675 108° East 403 464 19,600 -1,740 Descending New York Center
05:30PM 40.9153 -76.2164 107° East 392 451 18,000 -900 Descending New York Center
05:31PM 40.8853 -76.0958 108° East 386 444 17,900 -1,140 Descending New York Center
05:32PM 40.8500 -75.9531 108° East 381 438 15,800 -1,920 Descending New York Center
05:33PM 40.8217 -75.8386 108° East 374 430 14,100 -1,440 Descending New York Center
05:34PM 40.7897 -75.7047 107° East 353 406 13,000 -600 Descending New York Center
05:35PM 40.7594 -75.5847 108° East 348 400 13,000  Level New York Center
05:36PM 40.7289 -75.4619 108° East 348 400 13,000  Level New York Center
05:37PM 40.7025 -75.3397 106° East 355 409 13,000  Level New York Center
05:38PM 40.6797 -75.2206 104° East 350 403 13,000 -660 Level New York Center
05:39PM 40.6381 -75.1083 116° Southeast 344 396 11,700 -1,500 Descending New York Center
05:40PM 40.5806 -75.0283 133° Southeast 334 384 10,000 -900 Descending New York Center
05:41PM 40.5428 -74.9222 115° Southeast 329 379 10,000  Level New York Center
05:42PM 40.5092 -74.8081 111° Southeast 329 379 10,000  Level New York Center
05:43PM 40.4714 -74.6969 114° Southeast 315 362 10,000 60 Level New York Center
05:43PM 40.4500 -74.6667 133° Southeast 292 336 10,100 60 Climbing New York TRACON
05:44PM 40.4000 -74.6000 135° Southeast 286 329 10,100 -780 Level New York TRACON
05:46PM 40.3158 -74.4811 133° Southeast 275 316 8,000 -1,020 Descending New York Center
05:46PM 40.3167 -74.4333 89° East 283 326 8,100 -540 Climbing New York TRACON
05:47PM 40.3211 -74.3725 85° East 256 295 7,500 -540 Descending New York Center
05:48PM 40.3833 -74.2833 47° Northeast 282 325 7,100 -180 Descending New York TRACON
05:49PM 40.4500 -74.2167 37° Northeast 283 326 7,100 -240 Level New York TRACON
05:50PM 40.5167 -74.1500 37° Northeast 282 325 6,700 -1,140 Descending New York TRACON
05:51PM 40.5667 -74.0833 45° Northeast 285 328 4,900 -900 Descending New York TRACON
05:53PM 40.7167 -74.0333 14° North 268 308 4,100 -240 Descending New York TRACON
05:55PM 40.7687 -73.8955 30° Northeast  Level Estimated
05:55PM 40.8167 -73.9500 30° Northeast 230 265 4,100  Level New York TRACON
05:56PM 40.8667 -73.9000 37° Northeast 225 259 4,100 -420 Level New York TRACON
05:58PM 40.7772 -73.8726 167° South  Level Estimated
05:59PM 40.9000 -73.7833 270° West 170 196 2,600  Level New York TRACON
06:05PM 40.7772 -73.8726 270° West  Level Estimated